sensor_id;sensor_type;location;lat;lon;timestamp;temperature;humidity
12303;DHT22;6214;48.012;7.862;2022-09-14T00:01:24;21.30;99.90
12303;DHT22;6214;48.012;7.862;2022-09-14T00:03:56;21.20;99.90
12303;DHT22;6214;48.012;7.862;2022-09-14T00:06:23;21.30;99.90
12303;DHT22;6214;48.012;7.862;2022-09-14T00:08:54;21.30;99.90
12303;DHT22;6214;48.012;7.862;2022-09-14T00:11:23;21.50;99.90
12303;DHT22;6214;48.012;7.862;2022-09-14T00:13:51;21.60;99.90
12303;DHT22;6214;48.012;7.862;2022-09-14T00:16:24;21.50;99.90
12303;DHT22;6214;48.012;7.862;2022-09-14T00:19:01;21.50;99.90
12303;DHT22;6214;48.012;7.862;2022-09-14T00:21:33;21.50;99.90
12303;DHT22;6214;48.012;7.862;2022-09-14T00:24:00;21.40;99.90
12303;DHT22;6214;48.012;7.862;2022-09-14T00:26:27;21.40;99.90
12303;DHT22;6214;48.012;7.862;2022-09-14T00:28:56;21.40;99.90
12303;DHT22;6214;48.012;7.862;2022-09-14T00:31:24;21.40;99.90
12303;DHT22;6214;48.012;7.862;2022-09-14T00:33:52;21.40;99.90
12303;DHT22;6214;48.012;7.862;2022-09-14T00:36:25;21.40;99.90
12303;DHT22;6214;48.012;7.862;2022-09-14T00:38:53;21.50;99.90
12303;DHT22;6214;48.012;7.862;2022-09-14T00:41:24;21.50;99.90
12303;DHT22;6214;48.012;7.862;2022-09-14T00:46:46;21.40;99.90
12303;DHT22;6214;48.012;7.862;2022-09-14T00:51:53;21.40;99.90
12303;DHT22;6214;48.012;7.862;2022-09-14T00:54:21;21.60;99.90
12303;DHT22;6214;48.012;7.862;2022-09-14T00:56:48;21.70;99.90
12303;DHT22;6214;48.012;7.862;2022-09-14T00:59:21;21.80;99.90
12303;DHT22;6214;48.012;7.862;2022-09-14T01:01:49;21.80;99.90
12303;DHT22;6214;48.012;7.862;2022-09-14T01:04:16;21.90;99.90
12303;DHT22;6214;48.012;7.862;2022-09-14T01:10:15;21.80;99.90
12303;DHT22;6214;48.012;7.862;2022-09-14T01:15:26;21.60;99.90
12303;DHT22;6214;48.012;7.862;2022-09-14T01:20:48;21.80;99.90
12303;DHT22;6214;48.012;7.862;2022-09-14T01:24:17;21.80;99.90
12303;DHT22;6214;48.012;7.862;2022-09-14T01:30:17;21.70;99.90
12303;DHT22;6214;48.012;7.862;2022-09-14T01:35:11;21.60;99.90
12303;DHT22;6214;48.012;7.862;2022-09-14T01:37:54;21.60;99.90
12303;DHT22;6214;48.012;7.862;2022-09-14T01:40:33;21.70;99.90
12303;DHT22;6214;48.012;7.862;2022-09-14T01:43:28;21.60;99.90
12303;DHT22;6214;48.012;7.862;2022-09-14T01:49:26;21.40;99.90
12303;DHT22;6214;48.012;7.862;2022-09-14T01:52:06;21.40;99.90
12303;DHT22;6214;48.012;7.862;2022-09-14T01:54:44;21.30;99.90
12303;DHT22;6214;48.012;7.862;2022-09-14T01:57:33;21.40;99.90
12303;DHT22;6214;48.012;7.862;2022-09-14T02:00:06;21.30;99.90
12303;DHT22;6214;48.012;7.862;2022-09-14T02:05:11;21.40;99.90
12303;DHT22;6214;48.012;7.862;2022-09-14T02:07:40;21.40;99.90
12303;DHT22;6214;48.012;7.862;2022-09-14T02:10:11;21.40;99.90
12303;DHT22;6214;48.012;7.862;2022-09-14T02:12:39;21.50;99.90
12303;DHT22;6214;48.012;7.862;2022-09-14T02:15:09;21.50;99.90
12303;DHT22;6214;48.012;7.862;2022-09-14T02:17:37;21.70;99.90
12303;DHT22;6214;48.012;7.862;2022-09-14T02:20:06;21.70;99.90
12303;DHT22;6214;48.012;7.862;2022-09-14T02:22:35;21.70;99.90
12303;DHT22;6214;48.012;7.862;2022-09-14T02:25:02;21.70;99.90
12303;DHT22;6214;48.012;7.862;2022-09-14T02:27:29;21.70;99.90
12303;DHT22;6214;48.012;7.862;2022-09-14T02:29:56;21.70;99.90
12303;DHT22;6214;48.012;7.862;2022-09-14T02:40:41;21.90;99.90
12303;DHT22;6214;48.012;7.862;2022-09-14T02:51:18;21.90;99.90
12303;DHT22;6214;48.012;7.862;2022-09-14T02:56:37;22.00;99.90
12303;DHT22;6214;48.012;7.862;2022-09-14T02:59:04;22.10;99.90
12303;DHT22;6214;48.012;7.862;2022-09-14T03:01:31;22.10;99.90
12303;DHT22;6214;48.012;7.862;2022-09-14T03:03:59;22.20;99.90
12303;DHT22;6214;48.012;7.862;2022-09-14T03:06:26;22.10;99.90
12303;DHT22;6214;48.012;7.862;2022-09-14T03:08:53;22.10;99.90
12303;DHT22;6214;48.012;7.862;2022-09-14T03:11:20;22.20;99.90
12303;DHT22;6214;48.012;7.862;2022-09-14T03:13:47;22.10;99.90
12303;DHT22;6214;48.012;7.862;2022-09-14T03:16:15;22.00;99.90
12303;DHT22;6214;48.012;7.862;2022-09-14T03:18:43;21.90;99.90
12303;DHT22;6214;48.012;7.862;2022-09-14T03:21:12;21.80;99.90
12303;DHT22;6214;48.012;7.862;2022-09-14T03:23:42;21.70;99.90
12303;DHT22;6214;48.012;7.862;2022-09-14T03:26:12;21.50;99.90
12303;DHT22;6214;48.012;7.862;2022-09-14T03:28:39;21.50;99.90
12303;DHT22;6214;48.012;7.862;2022-09-14T03:31:08;21.50;99.90
12303;DHT22;6214;48.012;7.862;2022-09-14T03:33:36;21.40;99.90
12303;DHT22;6214;48.012;7.862;2022-09-14T03:36:17;21.40;99.90
12303;DHT22;6214;48.012;7.862;2022-09-14T03:38:53;21.40;99.90
12303;DHT22;6214;48.012;7.862;2022-09-14T03:41:21;21.50;99.90
12303;DHT22;6214;48.012;7.862;2022-09-14T03:43:49;21.40;99.90
12303;DHT22;6214;48.012;7.862;2022-09-14T03:46:18;21.50;99.90
12303;DHT22;6214;48.012;7.862;2022-09-14T03:48:47;21.50;99.90
12303;DHT22;6214;48.012;7.862;2022-09-14T03:51:15;21.50;99.90
12303;DHT22;6214;48.012;7.862;2022-09-14T03:53:43;21.60;99.90
12303;DHT22;6214;48.012;7.862;2022-09-14T03:56:13;21.50;99.90
12303;DHT22;6214;48.012;7.862;2022-09-14T03:58:41;21.60;99.90
12303;DHT22;6214;48.012;7.862;2022-09-14T04:01:12;21.60;99.90
12303;DHT22;6214;48.012;7.862;2022-09-14T04:03:40;21.60;99.90
12303;DHT22;6214;48.012;7.862;2022-09-14T04:06:08;21.50;99.90
12303;DHT22;6214;48.012;7.862;2022-09-14T04:08:37;21.50;99.90
12303;DHT22;6214;48.012;7.862;2022-09-14T04:13:35;21.50;99.90
12303;DHT22;6214;48.012;7.862;2022-09-14T04:16:02;21.50;99.90
12303;DHT22;6214;48.012;7.862;2022-09-14T04:18:30;21.40;99.90
12303;DHT22;6214;48.012;7.862;2022-09-14T04:21:02;21.50;99.90
12303;DHT22;6214;48.012;7.862;2022-09-14T04:23:34;21.50;99.90
12303;DHT22;6214;48.012;7.862;2022-09-14T04:26:26;21.50;99.90
12303;DHT22;6214;48.012;7.862;2022-09-14T04:28:55;21.60;99.90
12303;DHT22;6214;48.012;7.862;2022-09-14T04:31:22;21.50;99.90
12303;DHT22;6214;48.012;7.862;2022-09-14T04:33:49;21.60;99.90
12303;DHT22;6214;48.012;7.862;2022-09-14T04:36:19;21.60;99.90
12303;DHT22;6214;48.012;7.862;2022-09-14T04:38:46;21.60;99.90
12303;DHT22;6214;48.012;7.862;2022-09-14T04:41:16;21.60;99.90
12303;DHT22;6214;48.012;7.862;2022-09-14T04:43:44;21.60;99.90
12303;DHT22;6214;48.012;7.862;2022-09-14T04:46:16;21.60;99.90
12303;DHT22;6214;48.012;7.862;2022-09-14T04:48:44;21.60;99.90
12303;DHT22;6214;48.012;7.862;2022-09-14T04:51:14;21.60;99.90
12303;DHT22;6214;48.012;7.862;2022-09-14T04:53:44;21.60;99.90
12303;DHT22;6214;48.012;7.862;2022-09-14T04:56:12;21.60;99.90
12303;DHT22;6214;48.012;7.862;2022-09-14T04:58:45;21.50;99.90
12303;DHT22;6214;48.012;7.862;2022-09-14T05:01:20;21.60;99.90
12303;DHT22;6214;48.012;7.862;2022-09-14T05:03:48;21.70;99.90
12303;DHT22;6214;48.012;7.862;2022-09-14T05:06:27;21.60;99.90
12303;DHT22;6214;48.012;7.862;2022-09-14T05:08:55;21.60;99.90
12303;DHT22;6214;48.012;7.862;2022-09-14T05:11:24;21.60;99.90
12303;DHT22;6214;48.012;7.862;2022-09-14T05:13:54;21.60;99.90
12303;DHT22;6214;48.012;7.862;2022-09-14T05:16:29;21.60;99.90
12303;DHT22;6214;48.012;7.862;2022-09-14T05:19:02;21.60;99.90
12303;DHT22;6214;48.012;7.862;2022-09-14T05:21:31;21.60;99.90
12303;DHT22;6214;48.012;7.862;2022-09-14T05:24:01;21.60;99.90
12303;DHT22;6214;48.012;7.862;2022-09-14T05:26:30;21.60;99.90
12303;DHT22;6214;48.012;7.862;2022-09-14T05:28:59;21.70;99.90
12303;DHT22;6214;48.012;7.862;2022-09-14T05:31:27;21.70;99.90
12303;DHT22;6214;48.012;7.862;2022-09-14T05:33:54;21.70;99.90
12303;DHT22;6214;48.012;7.862;2022-09-14T05:36:21;21.80;99.90
12303;DHT22;6214;48.012;7.862;2022-09-14T05:38:48;21.80;99.90
12303;DHT22;6214;48.012;7.862;2022-09-14T05:41:16;21.80;99.90
12303;DHT22;6214;48.012;7.862;2022-09-14T05:43:43;21.80;99.90
12303;DHT22;6214;48.012;7.862;2022-09-14T05:46:13;21.90;99.90
12303;DHT22;6214;48.012;7.862;2022-09-14T05:48:40;21.90;99.90
12303;DHT22;6214;48.012;7.862;2022-09-14T05:51:14;21.90;99.90
12303;DHT22;6214;48.012;7.862;2022-09-14T05:53:49;21.90;99.90
12303;DHT22;6214;48.012;7.862;2022-09-14T05:56:18;21.90;99.90
12303;DHT22;6214;48.012;7.862;2022-09-14T05:58:46;21.90;99.90
12303;DHT22;6214;48.012;7.862;2022-09-14T06:01:25;21.90;99.90
12303;DHT22;6214;48.012;7.862;2022-09-14T06:03:55;21.90;99.90
12303;DHT22;6214;48.012;7.862;2022-09-14T06:06:23;22.00;99.90
12303;DHT22;6214;48.012;7.862;2022-09-14T06:08:51;22.10;99.90
12303;DHT22;6214;48.012;7.862;2022-09-14T06:11:24;22.10;99.90
12303;DHT22;6214;48.012;7.862;2022-09-14T06:13:53;22.10;99.90
12303;DHT22;6214;48.012;7.862;2022-09-14T06:16:22;22.10;99.90
12303;DHT22;6214;48.012;7.862;2022-09-14T06:18:49;22.20;99.90
12303;DHT22;6214;48.012;7.862;2022-09-14T06:21:18;22.20;99.90
12303;DHT22;6214;48.012;7.862;2022-09-14T06:23:47;22.20;99.90
12303;DHT22;6214;48.012;7.862;2022-09-14T06:26:15;22.30;99.90
12303;DHT22;6214;48.012;7.862;2022-09-14T06:28:42;22.40;99.90
12303;DHT22;6214;48.012;7.862;2022-09-14T06:31:13;22.30;99.90
12303;DHT22;6214;48.012;7.862;2022-09-14T06:33:44;22.40;99.90
12303;DHT22;6214;48.012;7.862;2022-09-14T06:36:13;22.50;99.90
12303;DHT22;6214;48.012;7.862;2022-09-14T06:38:41;22.60;99.90
12303;DHT22;6214;48.012;7.862;2022-09-14T06:41:10;22.60;99.90
12303;DHT22;6214;48.012;7.862;2022-09-14T06:43:39;22.70;99.90
12303;DHT22;6214;48.012;7.862;2022-09-14T06:46:09;22.80;99.90
12303;DHT22;6214;48.012;7.862;2022-09-14T06:48:39;22.90;99.90
12303;DHT22;6214;48.012;7.862;2022-09-14T06:51:15;22.90;99.90
12303;DHT22;6214;48.012;7.862;2022-09-14T06:53:43;23.00;99.90
12303;DHT22;6214;48.012;7.862;2022-09-14T06:56:11;23.10;99.90
12303;DHT22;6214;48.012;7.862;2022-09-14T06:58:39;23.10;99.90
12303;DHT22;6214;48.012;7.862;2022-09-14T07:01:12;23.10;99.90
12303;DHT22;6214;48.012;7.862;2022-09-14T07:03:41;23.00;99.90
12303;DHT22;6214;48.012;7.862;2022-09-14T07:06:15;23.00;99.90
12303;DHT22;6214;48.012;7.862;2022-09-14T07:08:42;23.10;99.90
12303;DHT22;6214;48.012;7.862;2022-09-14T07:11:12;23.10;99.90
12303;DHT22;6214;48.012;7.862;2022-09-14T07:13:39;23.10;99.90
12303;DHT22;6214;48.012;7.862;2022-09-14T07:16:06;23.10;99.90
12303;DHT22;6214;48.012;7.862;2022-09-14T07:18:34;23.10;99.90
12303;DHT22;6214;48.012;7.862;2022-09-14T07:21:02;23.20;99.90
12303;DHT22;6214;48.012;7.862;2022-09-14T07:23:32;23.30;99.90
12303;DHT22;6214;48.012;7.862;2022-09-14T07:26:05;23.40;99.90
12303;DHT22;6214;48.012;7.862;2022-09-14T07:28:33;23.50;99.90
12303;DHT22;6214;48.012;7.862;2022-09-14T07:31:01;23.60;99.90
12303;DHT22;6214;48.012;7.862;2022-09-14T07:33:29;23.70;99.90
12303;DHT22;6214;48.012;7.862;2022-09-14T07:36:06;23.80;99.90
12303;DHT22;6214;48.012;7.862;2022-09-14T07:38:34;24.00;99.90
12303;DHT22;6214;48.012;7.862;2022-09-14T07:41:25;24.20;99.90
12303;DHT22;6214;48.012;7.862;2022-09-14T07:43:54;24.60;99.90
12303;DHT22;6214;48.012;7.862;2022-09-14T07:46:23;24.70;99.90
12303;DHT22;6214;48.012;7.862;2022-09-14T07:48:55;24.80;99.90
12303;DHT22;6214;48.012;7.862;2022-09-14T07:51:23;24.80;99.90
12303;DHT22;6214;48.012;7.862;2022-09-14T07:53:50;24.90;99.90
12303;DHT22;6214;48.012;7.862;2022-09-14T07:56:18;25.00;99.90
12303;DHT22;6214;48.012;7.862;2022-09-14T07:58:51;25.30;99.90
12303;DHT22;6214;48.012;7.862;2022-09-14T08:01:24;25.30;99.90
12303;DHT22;6214;48.012;7.862;2022-09-14T08:03:51;25.30;99.90
12303;DHT22;6214;48.012;7.862;2022-09-14T08:06:20;25.30;99.90
12303;DHT22;6214;48.012;7.862;2022-09-14T08:08:49;25.40;99.90
12303;DHT22;6214;48.012;7.862;2022-09-14T08:11:20;25.50;99.90
12303;DHT22;6214;48.012;7.862;2022-09-14T08:13:56;25.60;99.90
12303;DHT22;6214;48.012;7.862;2022-09-14T08:16:25;25.50;99.90
12303;DHT22;6214;48.012;7.862;2022-09-14T08:19:04;25.60;99.90
12303;DHT22;6214;48.012;7.862;2022-09-14T08:21:32;25.70;99.90
12303;DHT22;6214;48.012;7.862;2022-09-14T08:23:59;25.70;99.90
12303;DHT22;6214;48.012;7.862;2022-09-14T08:26:28;25.60;99.90
12303;DHT22;6214;48.012;7.862;2022-09-14T08:28:56;25.70;99.90
12303;DHT22;6214;48.012;7.862;2022-09-14T08:31:27;25.80;99.90
12303;DHT22;6214;48.012;7.862;2022-09-14T08:34:01;25.90;99.90
12303;DHT22;6214;48.012;7.862;2022-09-14T08:36:33;26.00;99.90
12303;DHT22;6214;48.012;7.862;2022-09-14T08:39:00;26.30;99.90
12303;DHT22;6214;48.012;7.862;2022-09-14T08:51:56;26.20;99.90
12303;DHT22;6214;48.012;7.862;2022-09-14T08:54:23;26.20;99.90
12303;DHT22;6214;48.012;7.862;2022-09-14T08:57:01;26.30;99.90
12303;DHT22;6214;48.012;7.862;2022-09-14T08:59:46;26.40;99.90
12303;DHT22;6214;48.012;7.862;2022-09-14T09:10:25;26.30;99.90
12303;DHT22;6214;48.012;7.862;2022-09-14T09:12:58;26.30;99.90
12303;DHT22;6214;48.012;7.862;2022-09-14T09:15:33;26.30;99.90
12303;DHT22;6214;48.012;7.862;2022-09-14T09:18:07;26.30;99.90
12303;DHT22;6214;48.012;7.862;2022-09-14T09:20:39;26.30;99.90
12303;DHT22;6214;48.012;7.862;2022-09-14T09:23:17;26.60;99.90
12303;DHT22;6214;48.012;7.862;2022-09-14T09:26:06;26.70;99.90
12303;DHT22;6214;48.012;7.862;2022-09-14T09:28:50;26.80;99.90
12303;DHT22;6214;48.012;7.862;2022-09-14T09:31:20;26.70;99.90
12303;DHT22;6214;48.012;7.862;2022-09-14T09:33:49;26.70;99.90
12303;DHT22;6214;48.012;7.862;2022-09-14T09:36:16;26.60;99.90
12303;DHT22;6214;48.012;7.862;2022-09-14T09:38:44;26.60;99.90
12303;DHT22;6214;48.012;7.862;2022-09-14T09:41:25;26.50;99.90
12303;DHT22;6214;48.012;7.862;2022-09-14T09:44:06;26.60;99.90
12303;DHT22;6214;48.012;7.862;2022-09-14T09:46:53;26.70;99.90
12303;DHT22;6214;48.012;7.862;2022-09-14T09:51:54;26.80;99.90
12303;DHT22;6214;48.012;7.862;2022-09-14T09:54:29;26.90;99.90
12303;DHT22;6214;48.012;7.862;2022-09-14T09:57:33;26.90;99.90
12303;DHT22;6214;48.012;7.862;2022-09-14T10:02:48;27.00;99.90
12303;DHT22;6214;48.012;7.862;2022-09-14T10:05:24;27.10;99.90
12303;DHT22;6214;48.012;7.862;2022-09-14T10:07:57;27.10;99.90
12303;DHT22;6214;48.012;7.862;2022-09-14T10:10:39;27.10;99.90
12303;DHT22;6214;48.012;7.862;2022-09-14T10:13:30;26.90;99.90
12303;DHT22;6214;48.012;7.862;2022-09-14T10:16:16;26.70;99.90
12303;DHT22;6214;48.012;7.862;2022-09-14T10:18:51;26.50;99.90
12303;DHT22;6214;48.012;7.862;2022-09-14T10:21:20;26.30;99.90
12303;DHT22;6214;48.012;7.862;2022-09-14T10:24:15;26.30;99.90
12303;DHT22;6214;48.012;7.862;2022-09-14T10:26:43;25.90;99.90
12303;DHT22;6214;48.012;7.862;2022-09-14T10:31:52;25.30;99.90
12303;DHT22;6214;48.012;7.862;2022-09-14T10:34:20;25.00;99.90
12303;DHT22;6214;48.012;7.862;2022-09-14T10:36:57;24.70;99.90
12303;DHT22;6214;48.012;7.862;2022-09-14T10:40:19;24.60;99.90
12303;DHT22;6214;48.012;7.862;2022-09-14T10:42:38;24.60;99.90
12303;DHT22;6214;48.012;7.862;2022-09-14T10:45:28;24.50;99.90
12303;DHT22;6214;48.012;7.862;2022-09-14T10:53:47;24.30;99.90
12303;DHT22;6214;48.012;7.862;2022-09-14T10:56:21;24.40;99.90
12303;DHT22;6214;48.012;7.862;2022-09-14T11:02:03;24.50;99.90
12303;DHT22;6214;48.012;7.862;2022-09-14T11:07:50;24.60;99.90
12303;DHT22;6214;48.012;7.862;2022-09-14T11:10:27;24.60;99.90
12303;DHT22;6214;48.012;7.862;2022-09-14T11:13:06;24.60;99.90
12303;DHT22;6214;48.012;7.862;2022-09-14T11:21:31;24.80;99.90
12303;DHT22;6214;48.012;7.862;2022-09-14T11:23:58;24.70;99.90
12303;DHT22;6214;48.012;7.862;2022-09-14T11:26:38;24.60;99.90
12303;DHT22;6214;48.012;7.862;2022-09-14T11:34:46;24.40;99.90
12303;DHT22;6214;48.012;7.862;2022-09-14T11:37:16;24.50;99.90
12303;DHT22;6214;48.012;7.862;2022-09-14T11:40:05;24.60;99.90
12303;DHT22;6214;48.012;7.862;2022-09-14T11:45:23;24.40;99.90
12303;DHT22;6214;48.012;7.862;2022-09-14T11:51:13;24.40;99.90
12303;DHT22;6214;48.012;7.862;2022-09-14T11:53:42;24.50;99.90
12303;DHT22;6214;48.012;7.862;2022-09-14T11:56:31;24.50;99.90
12303;DHT22;6214;48.012;7.862;2022-09-14T11:59:03;24.40;99.90
12303;DHT22;6214;48.012;7.862;2022-09-14T12:01:38;24.40;99.90
12303;DHT22;6214;48.012;7.862;2022-09-14T12:04:14;24.40;99.90
12303;DHT22;6214;48.012;7.862;2022-09-14T12:06:44;24.40;99.90
12303;DHT22;6214;48.012;7.862;2022-09-14T12:11:43;24.60;99.90
12303;DHT22;6214;48.012;7.862;2022-09-14T12:14:29;24.60;99.90
12303;DHT22;6214;48.012;7.862;2022-09-14T12:17:14;24.70;99.90
12303;DHT22;6214;48.012;7.862;2022-09-14T12:43:51;23.30;99.90
12303;DHT22;6214;48.012;7.862;2022-09-14T13:04:28;23.40;99.90
12303;DHT22;6214;48.012;7.862;2022-09-14T13:06:57;23.00;99.90
12303;DHT22;6214;48.012;7.862;2022-09-14T13:09:27;22.80;99.90
12303;DHT22;6214;48.012;7.862;2022-09-14T13:12:07;22.70;99.90
12303;DHT22;6214;48.012;7.862;2022-09-14T13:14:48;22.70;99.90
12303;DHT22;6214;48.012;7.862;2022-09-14T13:17:18;22.60;99.90
12303;DHT22;6214;48.012;7.862;2022-09-14T13:20:00;22.60;99.90
12303;DHT22;6214;48.012;7.862;2022-09-14T13:22:31;22.60;99.90
12303;DHT22;6214;48.012;7.862;2022-09-14T13:24:59;22.60;99.90
12303;DHT22;6214;48.012;7.862;2022-09-14T13:27:35;22.60;99.90
12303;DHT22;6214;48.012;7.862;2022-09-14T13:32:42;22.80;99.90
12303;DHT22;6214;48.012;7.862;2022-09-14T13:35:25;22.70;99.90
12303;DHT22;6214;48.012;7.862;2022-09-14T13:37:53;22.40;99.90
12303;DHT22;6214;48.012;7.862;2022-09-14T13:40:27;22.30;99.90
12303;DHT22;6214;48.012;7.862;2022-09-14T13:42:58;22.00;99.90
12303;DHT22;6214;48.012;7.862;2022-09-14T13:45:25;21.80;99.90
12303;DHT22;6214;48.012;7.862;2022-09-14T13:47:53;21.80;99.90
12303;DHT22;6214;48.012;7.862;2022-09-14T13:50:22;22.00;99.90
12303;DHT22;6214;48.012;7.862;2022-09-14T13:52:51;22.00;99.90
12303;DHT22;6214;48.012;7.862;2022-09-14T14:00:59;22.30;99.90
12303;DHT22;6214;48.012;7.862;2022-09-14T14:06:01;22.60;99.90
12303;DHT22;6214;48.012;7.862;2022-09-14T14:08:31;22.70;99.90
12303;DHT22;6214;48.012;7.862;2022-09-14T14:11:02;22.80;99.90
12303;DHT22;6214;48.012;7.862;2022-09-14T14:13:32;22.80;99.90
12303;DHT22;6214;48.012;7.862;2022-09-14T14:16:20;22.90;99.90
12303;DHT22;6214;48.012;7.862;2022-09-14T14:18:55;22.90;99.90
12303;DHT22;6214;48.012;7.862;2022-09-14T14:26:50;23.10;99.90
12303;DHT22;6214;48.012;7.862;2022-09-14T14:29:18;23.10;99.90
12303;DHT22;6214;48.012;7.862;2022-09-14T14:31:45;23.20;99.90
12303;DHT22;6214;48.012;7.862;2022-09-14T14:34:21;23.20;99.90
12303;DHT22;6214;48.012;7.862;2022-09-14T14:36:49;23.10;99.90
12303;DHT22;6214;48.012;7.862;2022-09-14T14:39:18;23.10;99.90
12303;DHT22;6214;48.012;7.862;2022-09-14T14:41:46;23.10;99.90
12303;DHT22;6214;48.012;7.862;2022-09-14T14:44:22;23.10;99.90
12303;DHT22;6214;48.012;7.862;2022-09-14T14:46:50;23.10;99.90
12303;DHT22;6214;48.012;7.862;2022-09-14T14:49:17;23.10;99.90
12303;DHT22;6214;48.012;7.862;2022-09-14T14:51:46;23.10;99.90
12303;DHT22;6214;48.012;7.862;2022-09-14T14:54:14;23.00;99.90
12303;DHT22;6214;48.012;7.862;2022-09-14T14:56:45;23.00;99.90
12303;DHT22;6214;48.012;7.862;2022-09-14T15:01:56;23.00;99.90
12303;DHT22;6214;48.012;7.862;2022-09-14T15:04:23;23.00;99.90
12303;DHT22;6214;48.012;7.862;2022-09-14T15:06:51;23.10;99.90
12303;DHT22;6214;48.012;7.862;2022-09-14T15:09:24;23.00;99.90
12303;DHT22;6214;48.012;7.862;2022-09-14T15:11:52;23.10;99.90
12303;DHT22;6214;48.012;7.862;2022-09-14T15:14:24;23.10;99.90
12303;DHT22;6214;48.012;7.862;2022-09-14T15:16:53;23.00;99.90
12303;DHT22;6214;48.012;7.862;2022-09-14T15:19:26;23.00;99.90
12303;DHT22;6214;48.012;7.862;2022-09-14T15:21:54;23.00;99.90
12303;DHT22;6214;48.012;7.862;2022-09-14T15:24:27;22.90;99.90
12303;DHT22;6214;48.012;7.862;2022-09-14T15:26:54;23.00;99.90
12303;DHT22;6214;48.012;7.862;2022-09-14T15:29:21;23.00;99.90
12303;DHT22;6214;48.012;7.862;2022-09-14T15:31:48;22.90;99.90
12303;DHT22;6214;48.012;7.862;2022-09-14T15:34:16;22.90;99.90
12303;DHT22;6214;48.012;7.862;2022-09-14T15:36:45;22.80;99.90
12303;DHT22;6214;48.012;7.862;2022-09-14T15:39:21;22.80;99.90
12303;DHT22;6214;48.012;7.862;2022-09-14T15:41:49;22.80;99.90
12303;DHT22;6214;48.012;7.862;2022-09-14T15:44:16;22.80;99.90
12303;DHT22;6214;48.012;7.862;2022-09-14T15:46:44;22.70;99.90
12303;DHT22;6214;48.012;7.862;2022-09-14T15:49:19;22.70;99.90
12303;DHT22;6214;48.012;7.862;2022-09-14T15:51:48;22.70;99.90
12303;DHT22;6214;48.012;7.862;2022-09-14T15:54:17;22.70;99.90
12303;DHT22;6214;48.012;7.862;2022-09-14T15:56:54;22.70;99.90
12303;DHT22;6214;48.012;7.862;2022-09-14T15:59:21;22.70;99.90
12303;DHT22;6214;48.012;7.862;2022-09-14T16:01:49;22.70;99.90
12303;DHT22;6214;48.012;7.862;2022-09-14T16:04:17;22.70;99.90
12303;DHT22;6214;48.012;7.862;2022-09-14T16:06:46;22.70;99.90
12303;DHT22;6214;48.012;7.862;2022-09-14T16:09:15;22.70;99.90
12303;DHT22;6214;48.012;7.862;2022-09-14T16:11:43;22.70;99.90
12303;DHT22;6214;48.012;7.862;2022-09-14T16:14:13;22.70;99.90
12303;DHT22;6214;48.012;7.862;2022-09-14T16:16:41;22.80;99.90
12303;DHT22;6214;48.012;7.862;2022-09-14T16:19:13;22.90;99.90
12303;DHT22;6214;48.012;7.862;2022-09-14T16:21:42;23.00;99.90
12303;DHT22;6214;48.012;7.862;2022-09-14T16:24:13;23.00;99.90
12303;DHT22;6214;48.012;7.862;2022-09-14T16:26:43;23.10;99.90
12303;DHT22;6214;48.012;7.862;2022-09-14T16:29:18;23.10;99.90
12303;DHT22;6214;48.012;7.862;2022-09-14T16:31:47;23.10;99.90
12303;DHT22;6214;48.012;7.862;2022-09-14T16:34:19;23.10;99.90
12303;DHT22;6214;48.012;7.862;2022-09-14T16:36:46;23.10;99.90
12303;DHT22;6214;48.012;7.862;2022-09-14T16:39:17;23.10;99.90
12303;DHT22;6214;48.012;7.862;2022-09-14T16:41:44;23.20;99.90
12303;DHT22;6214;48.012;7.862;2022-09-14T16:44:20;23.20;99.90
12303;DHT22;6214;48.012;7.862;2022-09-14T16:46:47;23.10;99.90
12303;DHT22;6214;48.012;7.862;2022-09-14T16:49:17;23.20;99.90
12303;DHT22;6214;48.012;7.862;2022-09-14T16:51:49;23.20;99.90
12303;DHT22;6214;48.012;7.862;2022-09-14T16:54:17;23.10;99.90
12303;DHT22;6214;48.012;7.862;2022-09-14T16:56:45;23.10;99.90
12303;DHT22;6214;48.012;7.862;2022-09-14T16:59:13;23.00;99.90
12303;DHT22;6214;48.012;7.862;2022-09-14T17:01:44;23.00;99.90
12303;DHT22;6214;48.012;7.862;2022-09-14T17:04:15;23.00;99.90
12303;DHT22;6214;48.012;7.862;2022-09-14T17:06:43;22.90;99.90
12303;DHT22;6214;48.012;7.862;2022-09-14T17:09:20;22.90;99.90
12303;DHT22;6214;48.012;7.862;2022-09-14T17:11:50;22.90;99.90
12303;DHT22;6214;48.012;7.862;2022-09-14T17:14:22;22.90;99.90
12303;DHT22;6214;48.012;7.862;2022-09-14T17:16:51;22.90;99.90
12303;DHT22;6214;48.012;7.862;2022-09-14T17:19:20;22.90;99.90
12303;DHT22;6214;48.012;7.862;2022-09-14T17:21:49;22.90;99.90
12303;DHT22;6214;48.012;7.862;2022-09-14T17:24:18;22.80;99.90
12303;DHT22;6214;48.012;7.862;2022-09-14T17:26:47;22.90;99.90
12303;DHT22;6214;48.012;7.862;2022-09-14T17:29:14;22.80;99.90
12303;DHT22;6214;48.012;7.862;2022-09-14T17:31:43;22.80;99.90
12303;DHT22;6214;48.012;7.862;2022-09-14T17:34:12;22.80;99.90
12303;DHT22;6214;48.012;7.862;2022-09-14T17:36:40;22.80;99.90
12303;DHT22;6214;48.012;7.862;2022-09-14T17:39:08;22.80;99.90
12303;DHT22;6214;48.012;7.862;2022-09-14T17:41:39;22.80;99.90
12303;DHT22;6214;48.012;7.862;2022-09-14T17:44:08;22.70;99.90
12303;DHT22;6214;48.012;7.862;2022-09-14T17:46:35;22.80;99.90
12303;DHT22;6214;48.012;7.862;2022-09-14T17:49:14;23.50;99.90
12303;DHT22;6214;48.012;7.862;2022-09-14T17:51:42;22.80;99.90
12303;DHT22;6214;48.012;7.862;2022-09-14T17:54:11;22.80;99.90
12303;DHT22;6214;48.012;7.862;2022-09-14T17:56:38;22.70;99.90
12303;DHT22;6214;48.012;7.862;2022-09-14T17:59:16;22.70;99.90
12303;DHT22;6214;48.012;7.862;2022-09-14T18:01:43;22.70;99.90
12303;DHT22;6214;48.012;7.862;2022-09-14T18:04:11;22.60;99.90
12303;DHT22;6214;48.012;7.862;2022-09-14T18:06:43;22.60;99.90
12303;DHT22;6214;48.012;7.862;2022-09-14T18:09:13;22.60;99.90
12303;DHT22;6214;48.012;7.862;2022-09-14T18:11:41;22.60;99.90
12303;DHT22;6214;48.012;7.862;2022-09-14T18:14:10;22.60;99.90
12303;DHT22;6214;48.012;7.862;2022-09-14T18:16:39;22.70;99.90
12303;DHT22;6214;48.012;7.862;2022-09-14T18:19:06;22.70;99.90
12303;DHT22;6214;48.012;7.862;2022-09-14T18:21:34;22.70;99.90
12303;DHT22;6214;48.012;7.862;2022-09-14T18:24:02;22.70;99.90
12303;DHT22;6214;48.012;7.862;2022-09-14T18:26:29;22.80;99.90
12303;DHT22;6214;48.012;7.862;2022-09-14T18:28:56;22.80;99.90
12303;DHT22;6214;48.012;7.862;2022-09-14T18:31:25;22.80;99.90
12303;DHT22;6214;48.012;7.862;2022-09-14T18:33:55;22.80;99.90
12303;DHT22;6214;48.012;7.862;2022-09-14T18:36:25;22.90;99.90
12303;DHT22;6214;48.012;7.862;2022-09-14T18:38:56;22.80;99.90
12303;DHT22;6214;48.012;7.862;2022-09-14T18:41:23;22.90;99.90
12303;DHT22;6214;48.012;7.862;2022-09-14T18:43:51;23.00;99.90
12303;DHT22;6214;48.012;7.862;2022-09-14T18:46:19;23.00;99.90
12303;DHT22;6214;48.012;7.862;2022-09-14T18:48:54;23.00;99.90
12303;DHT22;6214;48.012;7.862;2022-09-14T18:51:22;23.00;99.90
12303;DHT22;6214;48.012;7.862;2022-09-14T18:53:58;23.10;99.90
12303;DHT22;6214;48.012;7.862;2022-09-14T18:56:26;23.10;99.90
12303;DHT22;6214;48.012;7.862;2022-09-14T18:58:55;23.10;99.90